createdAt,value
2019-02-05T00:04:38.580Z,100192.86
2019-02-05T00:07:07.275Z,100197.88
2019-02-05T00:09:35.813Z,100201.17
2019-02-05T00:12:05.547Z,100200.05
2019-02-05T00:14:34.884Z,100208.16
2019-02-05T00:17:04.428Z,100213.42
2019-02-05T00:19:32.959Z,100216.59
2019-02-05T00:22:01.615Z,100210.66
2019-02-05T00:24:30.958Z,100213.92
2019-02-05T00:26:59.803Z,100201.18
2019-02-05T00:29:28.237Z,100199.80
2019-02-05T00:31:57.561Z,100200.13
2019-02-05T00:34:27.310Z,100208.03
2019-02-05T00:36:55.851Z,100204.53
2019-02-05T00:39:25.272Z,100204.78
2019-02-05T00:42:14.520Z,100205.44
2019-02-05T00:44:43.866Z,100209.05
2019-02-05T00:47:13.195Z,100215.47
2019-02-05T00:49:41.727Z,100217.59
2019-02-05T00:52:10.256Z,100215.35
2019-02-05T00:54:39.599Z,100214.81
2019-02-05T00:57:08.944Z,100206.13
2019-02-05T00:59:38.274Z,100209.23
2019-02-05T01:05:10.819Z,100196.70
2019-02-05T01:07:39.463Z,100194.60
2019-02-05T01:10:09.412Z,100189.45
2019-02-05T01:12:38.036Z,100193.02
2019-02-05T01:15:09.471Z,100198.69
2019-02-05T01:17:38.008Z,100191.59
2019-02-05T01:20:10.220Z,100198.58
2019-02-05T01:22:39.560Z,100196.03
2019-02-05T01:25:09.120Z,100195.53
2019-02-05T01:27:38.550Z,100200.48
2019-02-05T01:30:27.897Z,100196.52
2019-02-05T01:32:57.335Z,100190.92
2019-02-05T01:35:26.672Z,100195.50
2019-02-05T01:37:55.220Z,100200.83
2019-02-05T01:40:44.460Z,100196.66
2019-02-05T01:43:13.001Z,100199.66
2019-02-05T01:45:42.331Z,100196.82
2019-02-05T01:48:11.669Z,100197.78
2019-02-05T01:50:53.433Z,100195.82
2019-02-05T01:53:22.770Z,100196.48
2019-02-05T01:55:51.303Z,100199.81
2019-02-05T01:58:19.734Z,100199.35
2019-02-05T02:00:48.271Z,100188.81
2019-02-05T02:03:16.807Z,100193.80
2019-02-05T02:05:46.455Z,100193.88
2019-02-05T02:08:14.904Z,100190.51
2019-02-05T02:10:44.333Z,100190.92
2019-02-05T02:13:13.673Z,100191.52
2019-02-05T02:15:43.006Z,100194.41
2019-02-05T02:18:12.334Z,100193.40
2019-02-05T02:20:41.857Z,100194.11
2019-02-05T02:23:10.511Z,100196.21
2019-02-05T02:25:39.846Z,100196.36
2019-02-05T02:28:09.307Z,100199.42
2019-02-05T02:30:38.730Z,100198.25
2019-02-05T02:33:07.574Z,100199.20
2019-02-05T02:35:56.820Z,100198.25
2019-02-05T02:38:26.159Z,100195.61
2019-02-05T02:40:55.939Z,100203.08
2019-02-05T02:43:25.277Z,100202.23
2019-02-05T02:46:14.507Z,100203.95
2019-02-05T02:48:43.842Z,100196.86
2019-02-05T02:51:12.396Z,100197.28
2019-02-05T02:53:40.945Z,100197.31
2019-02-05T02:56:09.458Z,100200.91
2019-02-05T02:58:37.995Z,100196.14
2019-02-05T03:01:06.618Z,100193.05
2019-02-05T03:03:35.968Z,100188.10
2019-02-05T03:06:05.492Z,100184.98
2019-02-05T03:08:34.838Z,100188.55
2019-02-05T03:11:04.594Z,100185.54
2019-02-05T03:13:33.624Z,100186.33
2019-02-05T03:16:03.553Z,100186.91
2019-02-05T03:18:32.113Z,100188.61
2019-02-05T03:21:01.450Z,100196.92
2019-02-05T03:23:29.970Z,100194.02
2019-02-05T03:25:59.303Z,100205.95
2019-02-05T03:28:28.653Z,100211.81
2019-02-05T03:30:57.973Z,100220.39
2019-02-05T03:33:27.291Z,100215.78
2019-02-05T03:35:56.637Z,100208.53
2019-02-05T03:38:25.075Z,100206.19
2019-02-05T03:41:13.779Z,100207.88
2019-02-05T03:43:42.404Z,100213.00
2019-02-05T03:46:23.598Z,100213.95
2019-02-05T03:48:52.540Z,100213.27
2019-02-05T03:54:51.886Z,100207.67
2019-02-05T04:01:06.657Z,100208.40
2019-02-05T04:04:13.956Z,100213.09
2019-02-05T04:07:10.850Z,100219.94
2019-02-05T04:10:09.488Z,100227.91
2019-02-05T04:13:37.501Z,100229.80
2019-02-05T04:16:40.526Z,100232.85
2019-02-05T04:19:47.729Z,100231.06
2019-02-05T04:22:54.954Z,100238.64
2019-02-05T04:26:02.102Z,100241.69
2019-02-05T04:28:54.623Z,100235.00
2019-02-05T04:32:01.882Z,100237.70
2019-02-05T04:35:09.151Z,100239.16
2019-02-05T04:38:16.558Z,100235.25
2019-02-05T04:41:23.462Z,100228.73
2019-02-05T04:44:30.783Z,100222.71
2019-02-05T04:47:38.048Z,100222.27
2019-02-05T04:50:32.585Z,100224.38
2019-02-05T04:53:24.500Z,100219.90
2019-02-05T04:56:32.619Z,100218.14
2019-02-05T04:59:40.672Z,100219.09
2019-02-05T05:02:47.930Z,100222.89
2019-02-05T05:05:43.949Z,100228.53
2019-02-05T05:08:51.160Z,100231.35
2019-02-05T05:11:20.492Z,100230.09
2019-02-05T05:13:49.026Z,100235.24
2019-02-05T05:16:18.462Z,100243.68
2019-02-05T05:18:47.807Z,100237.97
2019-02-05T05:23:59.531Z,100252.34
2019-02-05T05:26:28.300Z,100250.66
2019-02-05T05:28:58.122Z,100253.39
2019-02-05T05:31:27.571Z,100254.93
2019-02-05T05:33:56.913Z,100266.16
2019-02-05T05:36:26.259Z,100270.70
2019-02-05T05:39:15.523Z,100280.49
2019-02-05T05:41:44.868Z,100277.55
2019-02-05T05:44:13.371Z,100279.83
2019-02-05T05:46:41.917Z,100282.00
2019-02-05T05:49:11.264Z,100287.13
2019-02-05T05:51:40.102Z,100291.83
2019-02-05T05:54:09.449Z,100304.34
2019-02-05T05:56:38.799Z,100296.41
2019-02-05T05:59:08.137Z,100299.80
2019-02-05T06:01:37.480Z,100295.28
2019-02-05T06:04:06.944Z,100295.44
2019-02-05T06:06:36.267Z,100304.02
2019-02-05T06:12:09.140Z,100298.99
2019-02-05T06:14:38.476Z,100302.72
2019-02-05T06:17:27.707Z,100302.15
2019-02-05T06:19:57.043Z,100308.23
2019-02-05T06:22:26.370Z,100313.17
2019-02-05T06:24:55.823Z,100311.31
2019-02-05T06:27:24.389Z,100316.64
2019-02-05T06:29:52.918Z,100319.72
2019-02-05T06:32:21.413Z,100313.80
2019-02-05T06:34:49.946Z,100319.61
2019-02-05T06:37:19.292Z,100317.95
2019-02-05T06:39:48.651Z,100317.47
2019-02-05T06:42:18.093Z,100321.66
2019-02-05T06:44:47.860Z,100326.39
2019-02-05T06:47:17.239Z,100317.33
2019-02-05T06:49:46.608Z,100328.05
2019-02-05T06:52:15.939Z,100331.30
2019-02-05T06:54:44.478Z,100334.52
2019-02-05T06:57:13.906Z,100330.39
2019-02-05T06:59:43.334Z,100334.17
2019-02-05T07:02:12.952Z,100338.05
2019-02-05T07:04:43.125Z,100341.57
2019-02-05T07:07:12.439Z,100335.69
2019-02-05T07:09:40.973Z,100334.27
2019-02-05T07:12:10.306Z,100336.31
2019-02-05T07:14:38.732Z,100335.07
2019-02-05T07:17:07.456Z,100340.84
2019-02-05T07:19:35.974Z,100333.92
2019-02-05T07:22:05.445Z,100334.38
2019-02-05T07:24:34.843Z,100326.62
2019-02-05T07:27:04.194Z,100337.17
2019-02-05T07:29:33.503Z,100336.96
2019-02-05T07:32:02.018Z,100336.86
2019-02-05T07:34:51.233Z,100342.28
2019-02-05T07:37:19.744Z,100342.77
2019-02-05T07:39:49.077Z,100342.46
2019-02-05T07:42:17.486Z,100343.34
2019-02-05T07:44:46.808Z,100336.19
2019-02-05T07:47:36.032Z,100336.50
2019-02-05T07:50:06.797Z,100338.48
2019-02-05T07:52:36.106Z,100325.14
2019-02-05T07:55:06.005Z,100321.86
2019-02-05T08:00:37.512Z,100330.91
2019-02-05T08:03:19.192Z,100332.50
2019-02-05T08:05:47.704Z,100336.09
2019-02-05T08:08:17.024Z,100333.09
2019-02-05T08:10:46.447Z,100328.27
2019-02-05T08:16:18.390Z,100329.97
2019-02-05T08:18:47.903Z,100329.02
2019-02-05T08:21:17.224Z,100324.82
2019-02-05T08:23:46.527Z,100326.59
2019-02-05T08:26:15.830Z,100328.06
2019-02-05T08:28:45.139Z,100334.27
2019-02-05T08:31:13.642Z,100329.05
2019-02-05T08:36:44.438Z,100324.70
2019-02-05T08:39:12.923Z,100332.64
2019-02-05T08:44:44.112Z,100333.09
2019-02-05T08:50:17.197Z,100347.37
2019-02-05T08:52:45.739Z,100345.91
2019-02-05T08:55:15.540Z,100342.66
2019-02-05T09:00:46.568Z,100340.03
2019-02-05T09:03:15.081Z,100336.92
2019-02-05T09:08:46.015Z,100326.40
2019-02-05T09:14:16.934Z,100321.85
2019-02-05T09:16:45.446Z,100320.64
2019-02-05T09:25:11.114Z,100313.48
2019-02-05T09:27:39.639Z,100307.41
2019-02-05T09:30:12.335Z,100312.47
2019-02-05T09:35:44.331Z,100313.38
2019-02-05T09:38:13.667Z,100313.52
2019-02-05T09:40:43.014Z,100314.82
2019-02-05T09:43:11.510Z,100310.06
2019-02-05T09:45:40.842Z,100304.66
2019-02-05T09:48:09.443Z,100309.56
2019-02-05T09:50:44.758Z,100295.69
2019-02-05T09:53:27.073Z,100290.69
2019-02-05T09:55:56.403Z,100282.00
2019-02-05T09:58:25.020Z,100279.67
2019-02-05T10:00:53.552Z,100281.86
2019-02-05T10:03:22.165Z,100275.48
2019-02-05T10:05:51.474Z,100267.42
2019-02-05T10:08:20.766Z,100268.14
2019-02-05T10:10:49.365Z,100265.77
2019-02-05T10:13:18.663Z,100262.38
2019-02-05T10:15:47.407Z,100267.25
2019-02-05T10:18:16.718Z,100256.38
2019-02-05T10:20:46.247Z,100258.98
2019-02-05T10:23:15.637Z,100249.92
2019-02-05T10:25:45.072Z,100251.19
2019-02-05T10:28:14.572Z,100248.40
2019-02-05T10:34:06.187Z,100259.95
2019-02-05T10:36:35.499Z,100252.81
2019-02-05T10:42:09.190Z,100253.18
2019-02-05T10:44:37.955Z,100251.23
2019-02-05T10:47:07.291Z,100245.16
2019-02-05T10:49:36.600Z,100229.30
2019-02-05T10:52:06.203Z,100229.52
2019-02-05T10:54:35.626Z,100237.34
2019-02-05T10:57:04.917Z,100232.65
2019-02-05T10:59:33.431Z,100229.94
2019-02-05T11:02:02.155Z,100223.80
2019-02-05T11:04:30.893Z,100223.70
2019-02-05T11:07:00.377Z,100224.26
2019-02-05T11:09:29.790Z,100236.06
2019-02-05T11:11:59.119Z,100226.77
2019-02-05T11:14:28.521Z,100219.68
2019-02-05T11:17:17.739Z,100216.45
2019-02-05T11:19:47.164Z,100210.22
2019-02-05T11:22:15.589Z,100212.12
2019-02-05T11:24:44.106Z,100205.61
2019-02-05T11:27:13.504Z,100201.09
2019-02-05T11:32:46.456Z,100199.41
2019-02-05T11:35:15.104Z,100183.00
2019-02-05T11:37:43.742Z,100185.34
2019-02-05T11:43:15.739Z,100188.12
2019-02-05T11:45:44.153Z,100200.48
2019-02-05T11:48:33.477Z,100191.27
2019-02-05T11:51:02.912Z,100186.66
2019-02-05T11:53:32.748Z,100194.47
2019-02-05T11:56:01.307Z,100182.22
2019-02-05T11:58:29.819Z,100174.03
2019-02-05T12:01:39.400Z,100177.41
2019-02-05T12:04:08.830Z,100180.30
2019-02-05T12:06:37.408Z,100179.80
2019-02-05T12:09:26.726Z,100166.92
2019-02-05T12:11:55.283Z,100171.64
2019-02-05T12:14:24.604Z,100177.10
2019-02-05T12:16:53.941Z,100173.56
2019-02-05T12:19:23.261Z,100167.05
2019-02-05T12:22:12.550Z,100161.12
2019-02-05T12:24:41.897Z,100159.50
2019-02-05T12:27:11.209Z,100156.66
2019-02-05T12:29:40.543Z,100154.07
2019-02-05T12:32:08.962Z,100152.02
2019-02-05T12:34:49.485Z,100158.67
2019-02-05T12:37:17.942Z,100155.02
2019-02-05T12:39:46.579Z,100151.30
2019-02-05T12:42:15.913Z,100142.98
2019-02-05T12:44:45.225Z,100139.39
2019-02-05T12:47:14.628Z,100128.22
2019-02-05T12:49:44.063Z,100143.50
2019-02-05T12:52:13.502Z,100120.69
2019-02-05T12:54:42.047Z,100127.88
2019-02-05T12:57:10.563Z,100126.44
2019-02-05T12:59:39.001Z,100123.36
2019-02-05T13:02:08.531Z,100113.66
2019-02-05T13:04:38.096Z,100109.42
2019-02-05T13:07:07.399Z,100103.62
2019-02-05T13:09:35.917Z,100103.77
2019-02-05T13:12:05.767Z,100095.81
2019-02-05T13:14:34.302Z,100096.92
2019-02-05T13:20:08.760Z,100096.56
2019-02-05T13:22:38.075Z,100090.05
2019-02-05T13:25:11.651Z,100090.11
2019-02-05T13:27:40.978Z,100084.73
2019-02-05T13:33:15.142Z,100081.27
2019-02-05T13:35:43.969Z,100074.88
2019-02-05T13:38:12.720Z,100073.75
2019-02-05T13:40:42.031Z,100080.41
2019-02-05T13:43:11.051Z,100073.14
2019-02-05T13:45:52.312Z,100082.19
2019-02-05T13:48:21.047Z,100084.28
2019-02-05T13:50:50.375Z,100084.37
2019-02-05T13:53:19.719Z,100091.05
2019-02-05T13:55:48.334Z,100087.56
2019-02-05T13:58:17.256Z,100078.02
2019-02-05T14:00:51.345Z,100091.73
2019-02-05T14:03:31.556Z,100090.59
2019-02-05T14:06:00.082Z,100078.34
2019-02-05T14:08:30.396Z,100084.17
2019-02-05T14:10:59.719Z,100084.14
2019-02-05T14:13:48.934Z,100079.86
2019-02-05T14:16:18.370Z,100073.20
2019-02-05T14:18:54.980Z,100070.16
2019-02-05T14:21:17.164Z,100069.70
2019-02-05T14:23:45.878Z,100065.95
2019-02-05T14:28:58.392Z,100073.35
2019-02-05T14:31:31.416Z,100066.20
2019-02-05T14:33:58.245Z,100066.90
2019-02-05T14:39:30.715Z,100053.45
2019-02-05T14:42:00.046Z,100053.34
2019-02-05T14:44:29.403Z,100050.14
2019-02-05T14:46:57.968Z,100057.20
2019-02-05T14:49:27.104Z,100061.56
2019-02-05T14:51:57.792Z,100056.50
2019-02-05T14:54:44.954Z,100051.92
2019-02-05T14:57:14.488Z,100046.49
2019-02-05T14:59:43.929Z,100038.11
2019-02-05T15:02:13.239Z,100031.98
2019-02-05T15:04:42.556Z,100037.41
2019-02-05T15:07:11.897Z,100037.75
2019-02-05T15:09:41.222Z,100038.91
2019-02-05T15:12:09.740Z,100047.98
2019-02-05T15:14:38.487Z,100055.14
2019-02-05T15:17:07.807Z,100049.87
2019-02-05T15:19:37.140Z,100057.08
2019-02-05T15:22:06.453Z,100054.28
2019-02-05T15:24:37.960Z,100051.13
2019-02-05T15:27:25.197Z,100052.34
2019-02-05T15:29:54.535Z,100055.32
2019-02-05T15:32:43.316Z,100054.00
2019-02-05T15:35:12.255Z,100048.34
2019-02-05T15:37:41.685Z,100050.64
2019-02-05T15:40:11.151Z,100056.71
2019-02-05T15:42:40.508Z,100056.69
2019-02-05T15:48:12.663Z,100056.16
2019-02-05T15:50:41.382Z,100054.52
2019-02-05T15:53:10.104Z,100054.75
2019-02-05T15:55:39.711Z,100063.52
2019-02-05T15:58:09.033Z,100068.62
2019-02-05T16:00:38.397Z,100073.08
2019-02-05T16:03:07.986Z,100083.02
2019-02-05T16:05:37.388Z,100085.16
2019-02-05T16:08:07.059Z,100090.25
2019-02-05T16:10:36.390Z,100088.23
2019-02-05T16:13:05.811Z,100086.72
2019-02-05T16:18:42.338Z,100093.23
2019-02-05T16:21:11.676Z,100095.09
2019-02-05T16:23:41.117Z,100103.53
2019-02-05T16:26:10.452Z,100098.46
2019-02-05T16:28:39.878Z,100098.41
2019-02-05T16:31:09.202Z,100097.57
2019-02-05T16:33:58.425Z,100092.70
2019-02-05T16:36:27.806Z,100087.77
2019-02-05T16:38:57.097Z,100093.21
2019-02-05T16:41:26.430Z,100091.47
2019-02-05T16:43:55.755Z,100083.71
2019-02-05T16:46:25.089Z,100089.64
2019-02-05T16:48:53.715Z,100100.16
2019-02-05T16:51:23.035Z,100101.20
2019-02-05T16:56:36.041Z,100101.77
2019-02-05T16:59:05.581Z,100102.35
2019-02-05T17:01:34.916Z,100101.64
2019-02-05T17:04:04.942Z,100095.27
2019-02-05T17:06:34.464Z,100095.77
2019-02-05T17:15:09.772Z,100093.57
2019-02-05T17:17:39.618Z,100103.58
2019-02-05T17:20:12.056Z,100100.07
2019-02-05T17:22:40.900Z,100102.63
2019-02-05T17:25:11.414Z,100094.41
2019-02-05T17:27:40.341Z,100102.89
2019-02-05T17:30:12.464Z,100112.49
2019-02-05T17:32:40.983Z,100103.76
2019-02-05T17:35:09.810Z,100108.63
2019-02-05T17:37:39.138Z,100106.31
2019-02-05T17:40:10.298Z,100105.92
2019-02-05T17:42:39.021Z,100112.59
2019-02-05T17:45:29.958Z,100107.60
2019-02-05T17:48:00.990Z,100111.48
2019-02-05T17:50:29.720Z,100115.66
2019-02-05T17:56:00.913Z,100122.59
2019-02-05T17:58:29.840Z,100121.14
2019-02-05T18:03:57.223Z,100113.91
2019-02-05T18:06:26.545Z,100113.28
2019-02-05T18:08:55.868Z,100121.55
2019-02-05T18:11:25.259Z,100127.66
2019-02-05T18:13:54.639Z,100138.66
2019-02-05T18:16:26.096Z,100135.42
2019-02-05T18:21:57.703Z,100130.53
2019-02-05T18:24:27.025Z,100125.40
2019-02-05T18:26:56.356Z,100119.89
2019-02-05T18:29:25.678Z,100124.58
2019-02-05T18:31:55.116Z,100122.63
2019-02-05T18:34:23.842Z,100117.27
2019-02-05T18:36:53.172Z,100123.38
2019-02-05T18:39:21.962Z,100125.08
2019-02-05T18:41:51.288Z,100140.93
2019-02-05T18:44:20.618Z,100138.94
2019-02-05T18:46:49.942Z,100138.30
2019-02-05T18:52:21.399Z,100157.88
2019-02-05T18:54:49.927Z,100158.67
2019-02-05T18:57:39.144Z,100149.74
2019-02-05T19:00:32.749Z,100154.92
2019-02-05T19:03:02.504Z,100143.09
2019-02-05T19:05:31.905Z,100132.20
2019-02-05T19:08:01.229Z,100126.23
2019-02-05T19:10:31.629Z,100129.83
2019-02-05T19:16:04.148Z,100136.70
2019-02-05T19:18:33.792Z,100128.77
2019-02-05T19:21:03.338Z,100124.49
2019-02-05T19:23:32.959Z,100122.13
2019-02-05T19:26:14.290Z,100126.49
2019-02-05T19:28:43.301Z,100118.08
2019-02-05T19:31:32.253Z,100108.47
2019-02-05T19:34:00.850Z,100102.32
2019-02-05T19:36:30.383Z,100100.61
2019-02-05T19:38:59.699Z,100104.20
2019-02-05T19:44:30.168Z,100123.70
2019-02-05T19:47:02.488Z,100134.02
2019-02-05T19:52:34.364Z,100133.52
2019-02-05T19:55:04.074Z,100129.86
2019-02-05T20:00:35.425Z,100093.25
2019-02-05T20:06:06.691Z,100109.80
2019-02-05T20:08:36.364Z,100124.33
2019-02-05T20:11:05.890Z,100130.95
2019-02-05T20:13:55.110Z,100131.16
2019-02-05T20:16:24.450Z,100125.53
2019-02-05T20:18:52.868Z,100122.92
2019-02-05T20:21:22.195Z,100116.80
2019-02-05T20:23:50.626Z,100121.77
2019-02-05T20:26:39.858Z,100135.52
2019-02-05T20:29:09.379Z,100153.28
2019-02-05T20:31:38.708Z,100150.05
2019-02-05T20:34:08.026Z,100140.52
2019-02-05T20:36:37.341Z,100126.67
2019-02-05T20:42:12.323Z,100115.71
2019-02-05T20:44:41.656Z,100103.69
2019-02-05T20:50:14.038Z,100114.42
2019-02-05T20:52:43.550Z,100105.61
2019-02-05T20:55:13.377Z,100110.16
2019-02-05T21:00:44.214Z,100098.97
2019-02-05T21:03:12.735Z,100093.73
2019-02-05T21:05:41.543Z,100082.24
2019-02-05T21:08:10.902Z,100083.78
2019-02-05T21:10:40.318Z,100073.75
2019-02-05T21:13:09.643Z,100088.63
2019-02-05T21:15:38.972Z,100098.17
2019-02-05T21:18:08.280Z,100102.55
2019-02-05T21:20:37.603Z,100103.27
2019-02-05T21:23:07.021Z,100109.16
2019-02-05T21:25:35.655Z,100110.16
2019-02-05T21:28:04.410Z,100093.25
2019-02-05T21:33:35.075Z,100084.10
2019-02-05T21:36:03.809Z,100078.15
2019-02-05T21:38:33.117Z,100071.39
2019-02-05T21:41:02.504Z,100066.46
2019-02-05T21:43:31.068Z,100061.63
2019-02-05T21:46:01.132Z,100062.05
2019-02-05T21:48:49.605Z,100059.19
2019-02-05T21:51:18.927Z,100064.59
2019-02-05T21:53:48.240Z,100082.08
2019-02-05T21:56:17.554Z,100080.10
2019-02-05T21:58:46.399Z,100075.98
2019-02-05T22:01:15.016Z,100078.03
2019-02-05T22:03:44.442Z,100073.55
2019-02-05T22:06:13.833Z,100068.54
2019-02-05T22:08:43.188Z,100060.39
2019-02-05T22:11:12.551Z,100052.91
2019-02-05T22:13:41.886Z,100053.17
2019-02-05T22:16:11.335Z,100045.30
2019-02-05T22:18:40.962Z,100039.69
2019-02-05T22:21:30.178Z,100017.16
2019-02-05T22:23:58.704Z,100021.09
2019-02-05T22:26:28.012Z,100025.98
2019-02-05T22:28:56.934Z,100036.36
2019-02-05T22:31:26.238Z,100028.80
2019-02-05T22:33:55.559Z,100020.20
2019-02-05T22:36:23.975Z,100014.02
2019-02-05T22:38:53.303Z,100021.06
2019-02-05T22:41:22.977Z,100036.65
2019-02-05T22:43:51.493Z,100040.13
2019-02-05T22:46:20.005Z,100040.91
2019-02-05T22:48:48.420Z,100035.91
2019-02-05T22:51:17.737Z,100038.81
2019-02-05T22:53:47.066Z,100046.39
2019-02-05T22:56:16.389Z,100049.36
2019-02-05T22:59:05.720Z,100054.41
2019-02-05T23:01:55.739Z,100056.21
2019-02-05T23:05:04.035Z,100044.23
2019-02-05T23:07:32.658Z,100037.17
2019-02-05T23:10:29.297Z,100029.31
2019-02-05T23:13:01.364Z,100017.39
2019-02-05T23:15:30.189Z,99990.78
2019-02-05T23:17:58.797Z,99974.59
2019-02-05T23:20:48.001Z,99975.13
2019-02-05T23:23:17.321Z,99996.66
2019-02-05T23:25:46.770Z,100007.80
2019-02-05T23:28:16.123Z,99998.00
2019-02-05T23:30:44.841Z,99983.34
2019-02-05T23:33:13.757Z,99972.77
2019-02-05T23:35:43.084Z,99962.26
2019-02-05T23:38:11.677Z,99961.50
2019-02-05T23:40:40.996Z,99961.84
2019-02-05T23:43:10.426Z,99966.64
2019-02-05T23:45:39.744Z,99970.61
2019-02-05T23:48:09.372Z,99973.62
2019-02-05T23:50:38.684Z,99964.81
2019-02-05T23:53:07.997Z,99963.50
2019-02-05T23:55:37.289Z,99955.14
2019-02-05T23:58:05.701Z,99960.79
